Time;durP1;ratioP1;P1;durP2;ratioP2;P2;SDS_P1;SDS_P2;PMS_P1;PMS_P2;Temp;Humidity;BMP_temperature;BMP_pressure;BME280_temperature;BME280_humidity;BME280_pressure;Samples;Min_cycle;Max_cycle;Signal;HPM_P1;HPM_P2
2022/07/14 00:01:05;;;;;;;3.60;2.00;;;;;;;21.93;48.29;101075.47;7395811;19;20090;-68
2022/07/14 00:03:36;;;;;;;3.67;2.42;;;;;;;21.91;48.95;101080.03;7396920;19;20023;-69
2022/07/14 00:06:05;;;;;;;2.33;2.13;;;;;;;21.86;48.68;101090.16;7398056;19;20436;-68
2022/07/14 00:08:33;;;;;;;9.00;2.13;;;;;;;21.80;48.52;101096.78;7396448;19;20012;-68
2022/07/14 00:11:03;;;;;;;4.50;2.20;;;;;;;21.76;48.95;101092.56;7396472;19;20019;-68
2022/07/14 00:13:31;;;;;;;3.17;2.00;;;;;;;21.72;48.84;101101.72;7396708;19;20014;-68
2022/07/14 00:16:00;;;;;;;1.85;1.73;;;;;;;21.61;49.77;101105.94;7398739;19;20022;-68
2022/07/14 00:18:29;;;;;;;3.45;2.20;;;;;;;21.51;49.87;101110.09;7396303;19;20010;-68
2022/07/14 00:21:00;;;;;;;3.97;2.22;;;;;;;21.43;49.74;101104.38;7396386;19;20477;-68
2022/07/14 00:23:28;;;;;;;3.60;2.45;;;;;;;21.36;50.27;101105.69;7396460;19;20023;-68
2022/07/14 00:25:57;;;;;;;3.65;2.20;;;;;;;21.29;50.54;101114.09;7396220;19;20018;-68
2022/07/14 00:28:25;;;;;;;3.47;2.10;;;;;;;21.24;50.63;101110.84;7395948;19;20426;-69
2022/07/14 00:30:54;;;;;;;4.53;2.50;;;;;;;21.20;50.20;101111.97;7396061;19;20027;-69
2022/07/14 00:33:23;;;;;;;3.05;2.30;;;;;;;21.16;50.46;101118.47;7398117;19;20018;-68
2022/07/14 00:35:51;;;;;;;3.88;2.25;;;;;;;21.13;50.83;101114.16;7396081;19;20035;-68
2022/07/14 00:38:22;;;;;;;4.75;2.45;;;;;;;21.07;51.51;101124.38;7397461;19;20014;-68
2022/07/14 00:40:57;;;;;;;3.78;2.22;;;;;;;20.96;52.36;101123.16;7395570;19;20018;-68
2022/07/14 00:43:26;;;;;;;4.88;2.38;;;;;;;20.88;51.71;101112.13;7395920;19;20031;-68
2022/07/14 00:45:55;;;;;;;3.63;2.55;;;;;;;20.82;51.95;101117.81;7395305;19;20414;-69
2022/07/14 00:48:24;;;;;;;3.42;2.22;;;;;;;20.76;52.50;101126.16;7395944;19;20007;-68
2022/07/14 00:50:53;;;;;;;2.90;2.05;;;;;;;20.70;52.38;101119.38;7395878;19;20029;-68
2022/07/14 00:53:24;;;;;;;2.50;2.10;;;;;;;20.68;52.84;101119.44;7397480;19;20019;-68
2022/07/14 00:55:53;;;;;;;2.88;2.20;;;;;;;20.65;52.97;101126.78;7397811;19;20022;-68
2022/07/14 00:58:21;;;;;;;2.60;2.30;;;;;;;20.61;52.51;101126.09;7396897;19;20107;-68
2022/07/14 01:00:50;;;;;;;2.97;2.30;;;;;;;20.59;52.63;101130.66;7395307;19;20026;-68
2022/07/14 01:03:19;;;;;;;3.80;2.30;;;;;;;20.54;53.23;101126.53;7397242;19;20010;-69
2022/07/14 01:05:47;;;;;;;4.00;2.50;;;;;;;20.49;53.45;101124.13;7397054;19;20066;-68
2022/07/14 01:08:16;;;;;;;2.15;1.95;;;;;;;20.44;53.74;101121.72;7394873;19;20018;-68
2022/07/14 01:10:47;;;;;;;3.35;2.28;;;;;;;20.41;53.71;101121.03;7395043;19;20035;-69
2022/07/14 01:13:15;;;;;;;2.63;2.20;;;;;;;20.37;53.40;101130.16;7395954;19;20431;-67
2022/07/14 01:15:44;;;;;;;2.63;2.00;;;;;;;20.34;53.67;101128.53;7396779;19;20039;-67
2022/07/14 01:18:13;;;;;;;2.97;2.30;;;;;;;20.33;53.72;101127.69;7394901;19;20027;-68
2022/07/14 01:20:42;;;;;;;3.10;2.10;;;;;;;20.32;53.92;101122.41;7395230;19;20015;-68
2022/07/14 01:23:13;;;;;;;2.63;2.40;;;;;;;20.25;54.75;101121.91;7394737;19;20018;-68
2022/07/14 01:25:42;;;;;;;3.97;2.40;;;;;;;20.20;54.35;101123.97;7396846;19;20018;-68
2022/07/14 01:28:10;;;;;;;3.80;2.28;;;;;;;20.16;54.38;101122.44;7394656;19;20022;-68
2022/07/14 01:30:39;;;;;;;3.33;2.33;;;;;;;20.12;54.35;101126.19;7394533;19;20026;-68
2022/07/14 01:33:07;;;;;;;2.97;2.70;;;;;;;20.08;54.68;101116.66;7396251;19;20031;-68
2022/07/14 01:35:36;;;;;;;4.97;2.50;;;;;;;20.02;54.86;101136.53;7395712;19;20427;-68
2022/07/14 01:38:05;;;;;;;3.00;2.30;;;;;;;19.96;55.16;101132.38;7394361;19;20418;-68
2022/07/14 01:40:36;;;;;;;3.20;2.40;;;;;;;19.89;55.85;101138.13;7393517;19;20011;-68
2022/07/14 01:43:04;;;;;;;4.00;2.35;;;;;;;19.77;56.75;101142.31;7395729;19;20115;-68
2022/07/14 01:45:34;;;;;;;3.30;2.30;;;;;;;19.67;56.26;101136.59;7394111;19;20031;-68
2022/07/14 01:48:03;;;;;;;2.60;2.40;;;;;;;19.59;56.95;101138.81;7393867;19;20485;-68
2022/07/14 01:50:31;;;;;;;2.53;2.05;;;;;;;19.50;56.96;101141.03;7393989;19;20018;-68
2022/07/14 01:53:00;;;;;;;3.75;2.55;;;;;;;19.42;57.43;101139.72;7395569;19;20031;-69
2022/07/14 01:55:28;;;;;;;5.78;2.33;;;;;;;19.32;58.84;101144.66;7394042;19;20035;-68
2022/07/14 01:58:00;;;;;;;5.20;2.72;;;;;;;19.26;59.08;101151.16;7395537;19;20039;-68
2022/07/14 02:00:28;;;;;;;3.50;2.28;;;;;;;19.23;58.66;101148.66;7394414;19;20084;-68
2022/07/14 02:02:57;;;;;;;3.67;2.00;;;;;;;19.19;58.82;101141.78;7395018;19;20011;-68
2022/07/14 02:05:33;;;;;;;7.40;2.05;;;;;;;19.15;59.40;101148.19;7395313;19;20082;-68
2022/07/14 02:08:01;;;;;;;5.80;2.15;;;;;;;19.12;59.23;101156.31;7393607;19;20007;-68
2022/07/14 02:13:13;;;;;;;5.78;2.42;;;;;;;19.04;59.35;101141.63;7395355;19;20021;-68
2022/07/14 02:15:42;;;;;;;3.17;2.20;;;;;;;19.03;59.19;101147.88;7394622;19;20363;-69
2022/07/14 02:18:10;;;;;;;5.57;2.72;;;;;;;19.00;59.20;101140.06;7395698;19;20018;-69
2022/07/14 02:20:39;;;;;;;5.10;2.20;;;;;;;18.98;59.14;101149.94;7393424;19;20031;-68
2022/07/14 02:23:07;;;;;;;4.50;2.00;;;;;;;18.95;60.08;101154.53;7394876;19;20022;-69
2022/07/14 02:25:36;;;;;;;4.93;2.17;;;;;;;18.88;59.80;101160.13;7398111;19;20022;-68
2022/07/14 02:28:04;;;;;;;4.93;2.25;;;;;;;18.85;59.78;101159.41;7399942;19;20035;-68
2022/07/14 02:30:36;;;;;;;6.57;1.95;;;;;;;18.82;59.93;101143.63;7399211;19;20026;-68
2022/07/14 02:33:04;;;;;;;4.00;1.90;;;;;;;18.74;60.55;101146.66;7402344;19;20107;-68
2022/07/14 02:35:33;;;;;;;3.40;1.83;;;;;;;18.70;60.20;101150.41;7401187;19;20390;-68
2022/07/14 02:38:02;;;;;;;4.63;2.20;;;;;;;18.65;60.53;101150.66;7398667;19;20015;-68
2022/07/14 02:40:36;;;;;;;4.40;1.90;;;;;;;18.62;61.21;101158.75;7398685;19;20011;-69
2022/07/14 02:43:05;;;;;;;3.88;2.33;;;;;;;18.58;60.79;101151.88;7398421;19;20384;-68
2022/07/14 02:45:36;;;;;;;4.75;2.60;;;;;;;18.58;61.05;101154.53;7398223;19;20086;-68
2022/07/14 02:48:05;;;;;;;3.97;2.10;;;;;;;18.55;61.01;101159.97;7398546;19;20360;-68
2022/07/14 02:50:33;;;;;;;3.88;1.90;;;;;;;18.51;60.76;101169.03;7398204;19;20385;-68
2022/07/14 02:53:02;;;;;;;4.35;2.22;;;;;;;18.47;61.44;101167.47;7398662;19;20035;-68
2022/07/14 02:55:31;;;;;;;4.60;2.03;;;;;;;18.40;61.45;101167.75;7398657;19;20018;-68
2022/07/14 02:58:00;;;;;;;5.47;2.10;;;;;;;18.34;61.75;101165.41;7401262;19;20019;-68
2022/07/14 03:00:28;;;;;;;4.35;2.03;;;;;;;18.26;61.81;101174.66;7399789;19;20014;-69
2022/07/14 03:03:01;;;;;;;4.75;2.15;;;;;;;18.19;62.52;101182.06;7397883;19;20501;-68
2022/07/14 03:05:29;;;;;;;7.25;2.20;;;;;;;18.13;62.41;101174.38;7401491;19;20074;-68
2022/07/14 03:07:58;;;;;;;4.28;2.05;;;;;;;18.09;62.27;101180.78;7398679;19;20488;-68
2022/07/14 03:10:26;;;;;;;4.50;2.05;;;;;;;18.04;62.33;101173.88;7398208;19;20082;-68
2022/07/14 03:12:55;;;;;;;5.82;1.75;;;;;;;18.01;62.59;101175.81;7400827;19;20018;-68
2022/07/14 03:15:24;;;;;;;6.95;2.03;;;;;;;17.95;62.89;101182.25;7398194;19;20021;-68
2022/07/14 03:17:52;;;;;;;6.47;2.20;;;;;;;17.90;63.05;101189.53;7400605;19;20074;-69
2022/07/14 03:20:23;;;;;;;7.18;2.33;;;;;;;17.86;62.93;101187.97;7398381;19;20031;-68
2022/07/14 03:22:52;;;;;;;5.38;2.35;;;;;;;17.81;63.22;101197.94;7398478;19;20027;-68
2022/07/14 03:25:20;;;;;;;6.63;2.22;;;;;;;17.74;63.53;101203.50;7400341;19;20023;-68
2022/07/14 03:27:49;;;;;;;9.48;2.70;;;;;;;17.65;64.04;101222.47;7397375;19;20388;-68
2022/07/14 03:30:18;;;;;;;6.82;2.00;;;;;;;17.54;63.90;101222.97;7398773;19;20022;-68
2022/07/14 03:32:47;;;;;;;7.68;2.00;;;;;;;17.46;64.66;101222.41;7399491;19;20492;-68
2022/07/14 03:35:15;;;;;;;6.20;2.38;;;;;;;17.36;64.83;101215.78;7398963;19;20411;-68
2022/07/14 03:37:46;;;;;;;9.52;2.28;;;;;;;17.26;64.93;101215.31;7397684;19;20035;-68
2022/07/14 03:40:15;;;;;;;5.88;1.80;;;;;;;17.19;65.10;101227.13;7396038;19;20345;-68
2022/07/14 03:42:44;;;;;;;5.40;1.98;;;;;;;17.09;64.57;101223.97;7399236;19;20078;-68
2022/07/14 03:45:12;;;;;;;9.55;2.97;;;;;;;17.04;64.84;101216.22;7399355;19;20103;-68
2022/07/14 03:47:42;;;;;;;6.50;1.90;;;;;;;17.04;64.51;101237.41;7398713;19;20548;-68
2022/07/14 03:50:11;;;;;;;6.95;1.70;;;;;;;17.03;64.76;101234.84;7398112;19;20022;-68
2022/07/14 03:52:40;;;;;;;5.65;2.00;;;;;;;17.04;64.51;101228.63;7399586;19;20015;-69
2022/07/14 03:55:11;;;;;;;8.63;2.40;;;;;;;17.00;65.06;101241.13;7399517;19;20010;-68
2022/07/14 03:57:40;;;;;;;6.00;2.30;;;;;;;17.00;64.47;101238.47;7399775;19;20019;-68
2022/07/14 04:00:10;;;;;;;7.55;1.83;;;;;;;16.98;64.45;101242.97;7397830;19;20086;-68
2022/07/14 04:02:39;;;;;;;5.97;1.60;;;;;;;16.95;65.00;101240.44;7396772;19;20018;-68
2022/07/14 04:05:08;;;;;;;5.28;1.67;;;;;;;16.91;64.63;101244.16;7398911;19;20034;-69
2022/07/14 04:07:36;;;;;;;6.85;1.77;;;;;;;16.85;64.72;101244.38;7396184;19;20031;-68
2022/07/14 04:10:05;;;;;;;7.68;2.05;;;;;;;16.81;65.01;101243.63;7395931;19;20023;-69
2022/07/14 04:12:36;;;;;;;8.82;2.10;;;;;;;16.69;65.43;101252.06;7395863;19;20026;-69
2022/07/14 04:15:06;;;;;;;5.93;1.92;;;;;;;16.64;65.10;101248.72;7397890;19;20028;-68
2022/07/14 04:17:34;;;;;;;6.22;1.65;;;;;;;16.60;65.13;101243.56;7397856;19;20022;-69
2022/07/14 04:20:03;;;;;;;10.85;2.50;;;;;;;16.61;65.14;101241.75;7396574;19;20018;-69
2022/07/14 04:22:31;;;;;;;8.10;1.95;;;;;;;16.63;65.08;101242.56;7395363;19;20034;-69
2022/07/14 04:25:00;;;;;;;9.82;2.63;;;;;;;16.58;64.87;101253.34;7397227;19;20381;-69
2022/07/14 04:27:28;;;;;;;8.05;2.03;;;;;;;16.57;64.79;101251.59;7397639;19;20031;-69
2022/07/14 04:29:59;;;;;;;10.60;2.42;;;;;;;16.58;64.96;101263.06;7395042;19;20135;-68
2022/07/14 04:32:28;;;;;;;8.85;2.67;;;;;;;16.58;64.70;101255.09;7397354;19;20041;-69
2022/07/14 04:34:56;;;;;;;9.27;2.20;;;;;;;16.63;65.01;101249.63;7394807;19;20018;-69
2022/07/14 04:37:26;;;;;;;9.95;2.40;;;;;;;16.64;64.81;101249.56;7397037;19;20031;-68
2022/07/14 04:40:01;;;;;;;7.85;1.77;;;;;;;16.64;65.58;101260.16;7395910;19;20010;-68
2022/07/14 04:42:35;;;;;;;8.77;2.33;;;;;;;16.59;65.26;101249.78;7397331;19;20098;-68
2022/07/14 04:45:07;;;;;;;11.85;2.67;;;;;;;16.58;65.76;101265.69;7397022;19;20422;-68
2022/07/14 04:47:36;;;;;;;5.65;1.80;;;;;;;16.57;65.18;101261.34;7393716;19;20552;-68
2022/07/14 04:52:49;;;;;;;8.02;2.35;;;;;;;16.53;65.92;101265.03;7392622;19;20010;-68
2022/07/14 04:55:18;;;;;;;8.52;2.58;;;;;;;16.53;66.05;101263.25;7394484;19;20011;-68
2022/07/14 04:57:47;;;;;;;11.10;2.35;;;;;;;16.57;65.63;101256.91;7396930;19;20032;-68
2022/07/14 05:00:18;;;;;;;9.02;2.33;;;;;;;16.59;64.69;101257.72;7393999;19;20018;-68
2022/07/14 05:02:47;;;;;;;9.27;1.85;;;;;;;16.60;64.89;101266.53;7396675;19;20020;-69
2022/07/14 05:05:16;;;;;;;10.02;2.15;;;;;;;16.60;64.75;101261.22;7394845;19;20023;-69
2022/07/14 05:07:44;;;;;;;5.97;1.80;;;;;;;16.60;64.47;101256.81;7395345;19;20017;-69
2022/07/14 05:10:34;;;;;;;8.30;2.25;;;;;;;16.63;64.53;101268.19;6287908;19;22242825;-68
2022/07/14 05:13:03;;;;;;;9.18;1.73;;;;;;;16.66;64.35;101255.69;7431135;19;20018;-68
2022/07/14 05:15:31;;;;;;;10.10;2.45;;;;;;;16.72;63.97;101255.44;7426913;19;20014;-68
2022/07/14 05:18:00;;;;;;;9.75;2.78;;;;;;;16.80;64.00;101262.25;7429392;19;20018;-67
2022/07/14 05:20:28;;;;;;;8.82;1.95;;;;;;;16.82;63.63;101255.06;7427721;19;20027;-68
2022/07/14 05:22:57;;;;;;;11.30;2.22;;;;;;;16.84;63.48;101254.09;7430720;19;20343;-68
2022/07/14 05:25:28;;;;;;;7.38;2.17;;;;;;;16.85;63.47;101247.88;7426780;19;20476;-68
2022/07/14 05:27:57;;;;;;;9.13;2.42;;;;;;;16.89;63.89;101245.97;7430677;19;20022;-68
2022/07/14 05:30:25;;;;;;;10.73;2.30;;;;;;;16.91;63.56;101249.47;7427418;19;20078;-68
2022/07/14 05:32:54;;;;;;;9.27;1.95;;;;;;;16.94;63.74;101252.81;7426845;19;20031;-71
2022/07/14 05:35:22;;;;;;;6.57;1.67;;;;;;;17.01;63.46;101255.22;7430045;19;20010;-68
2022/07/14 05:37:51;;;;;;;8.38;1.85;;;;;;;17.03;63.52;101254.25;7429782;19;20078;-68
2022/07/14 05:40:20;;;;;;;8.85;2.22;;;;;;;17.06;63.37;101266.50;7426199;19;20018;-68
2022/07/14 05:42:51;;;;;;;7.20;2.45;;;;;;;17.12;63.45;101274.22;7426820;19;20039;-68
2022/07/14 05:45:20;;;;;;;7.63;1.98;;;;;;;17.13;63.53;101265.34;7427159;19;20412;-68
2022/07/14 05:47:49;;;;;;;15.00;2.95;;;;;;;17.14;63.47;101263.56;7426718;19;20031;-68
2022/07/14 05:50:17;;;;;;;9.43;2.20;;;;;;;17.15;63.16;101273.22;7426265;19;20086;-68
2022/07/14 05:52:46;;;;;;;7.13;1.85;;;;;;;17.12;63.04;101268.06;7429961;19;20022;-67
2022/07/14 05:55:14;;;;;;;11.52;2.55;;;;;;;17.07;63.06;101274.41;7430114;19;20014;-68
2022/07/14 05:57:43;;;;;;;10.52;2.08;;;;;;;17.02;63.30;101272.84;7427237;19;20081;-68
2022/07/14 06:00:15;;;;;;;11.27;2.75;;;;;;;16.96;63.77;101274.00;7426025;19;20082;-68
2022/07/14 06:02:43;;;;;;;8.98;2.33;;;;;;;16.90;63.63;101268.91;7429557;19;20018;-67
2022/07/14 06:05:13;;;;;;;7.03;1.90;;;;;;;16.85;63.79;101273.53;7429145;19;20398;-67
2022/07/14 06:07:42;;;;;;;13.82;2.22;;;;;;;16.78;63.71;101271.09;7428733;19;20078;-67
2022/07/14 06:10:13;;;;;;;14.13;2.63;;;;;;;16.75;63.67;101273.00;7425280;19;20017;-67
2022/07/14 06:12:41;;;;;;;6.50;2.00;;;;;;;16.70;63.60;101273.19;7426488;19;20026;-67
2022/07/14 06:15:11;;;;;;;9.02;1.83;;;;;;;16.68;63.46;101264.44;7425735;19;20011;-68
2022/07/14 06:17:42;;;;;;;13.50;2.88;;;;;;;16.69;63.61;101268.81;7428220;19;20011;-69
2022/07/14 06:20:12;;;;;;;8.75;1.48;;;;;;;16.73;63.04;101275.72;7415965;19;20025;-68
2022/07/14 06:22:41;;;;;;;12.82;1.95;;;;;;;16.78;63.10;101272.88;7396557;19;20015;-68
2022/07/14 06:25:10;;;;;;;11.57;2.20;;;;;;;16.81;62.87;101266.59;7396970;19;20078;-68
2022/07/14 06:27:39;;;;;;;10.38;2.33;;;;;;;16.81;62.84;101264.81;7399112;19;20014;-68
2022/07/14 06:30:09;;;;;;;9.00;2.10;;;;;;;16.81;62.74;101269.25;7397406;19;20425;-68
2022/07/14 06:32:42;;;;;;;8.55;1.75;;;;;;;16.78;62.74;101264.94;7398948;19;20473;-68
2022/07/14 06:35:12;;;;;;;11.38;1.85;;;;;;;16.76;62.76;101269.44;7399474;19;20022;-69
2022/07/14 06:37:41;;;;;;;9.93;2.10;;;;;;;16.75;62.46;101271.22;7395633;19;20484;-66
2022/07/14 06:40:10;;;;;;;13.43;2.53;;;;;;;16.76;62.45;101280.03;7397934;19;20078;-63
2022/07/14 06:42:39;;;;;;;8.05;2.13;;;;;;;16.76;62.42;101270.28;7396835;19;20422;-71
2022/07/14 06:45:09;;;;;;;12.60;2.13;;;;;;;16.76;62.59;101272.94;7396458;19;20010;-67
2022/07/14 06:47:37;;;;;;;4.35;1.60;;;;;;;16.81;62.47;101277.19;7397146;19;20139;-67
2022/07/14 06:50:10;;;;;;;8.45;2.50;;;;;;;16.82;62.30;101265.66;7396464;19;20031;-67
2022/07/14 06:52:39;;;;;;;10.25;2.10;;;;;;;16.86;62.24;101260.19;7396573;19;20548;-67
2022/07/14 06:55:09;;;;;;;11.23;1.70;;;;;;;16.89;61.71;101252.13;7396897;19;20023;-67
2022/07/14 06:57:38;;;;;;;5.82;1.80;;;;;;;16.95;61.26;101251.06;7396385;19;20109;-68
2022/07/14 07:00:08;;;;;;;9.98;1.90;;;;;;;16.99;60.99;101257.09;7397931;19;20022;-68
2022/07/14 07:02:38;;;;;;;9.18;1.90;;;;;;;17.00;60.49;101257.03;7399017;19;20376;-68
2022/07/14 07:07:51;;;;;;;10.52;2.13;;;;;;;17.12;60.50;101254.81;7398916;19;20015;-68
2022/07/14 07:10:21;;;;;;;9.18;2.08;;;;;;;17.20;60.24;101245.59;7396357;19;20018;-68
2022/07/14 07:12:49;;;;;;;7.45;1.95;;;;;;;17.29;59.69;101244.34;7398837;19;20082;-68
2022/07/14 07:15:18;;;;;;;7.75;2.20;;;;;;;17.37;59.69;101242.22;7397869;19;20377;-67
2022/07/14 07:17:46;;;;;;;5.82;1.80;;;;;;;17.47;59.36;101248.00;7397454;19;20023;-68
2022/07/14 07:20:18;;;;;;;9.57;2.28;;;;;;;17.56;58.81;101238.81;7396094;19;20039;-67
2022/07/14 07:22:46;;;;;;;8.18;1.85;;;;;;;17.64;58.45;101236.69;7397923;19;20017;-67
2022/07/14 07:25:15;;;;;;;9.57;1.90;;;;;;;17.70;58.59;101233.75;7397718;19;20018;-67
2022/07/14 07:27:43;;;;;;;8.43;2.13;;;;;;;17.81;57.89;101229.78;7397499;19;20031;-66
2022/07/14 07:30:12;;;;;;;8.00;2.08;;;;;;;17.88;57.42;101237.41;7395624;19;20392;-67
2022/07/14 07:32:41;;;;;;;4.68;1.60;;;;;;;17.94;56.94;101223.00;7392929;19;20091;-66
2022/07/14 07:35:10;;;;;;;9.75;2.03;;;;;;;17.99;56.65;101233.44;7395107;19;20022;-67
2022/07/14 07:37:41;;;;;;;7.32;1.30;;;;;;;18.01;56.44;101227.13;7394825;19;20029;-67
2022/07/14 07:40:11;;;;;;;8.48;1.75;;;;;;;18.02;56.25;101227.97;7396276;19;20022;-67
2022/07/14 07:42:40;;;;;;;8.00;1.80;;;;;;;18.02;56.15;101227.97;7395450;19;20014;-67
2022/07/14 07:45:10;;;;;;;7.00;1.80;;;;;;;18.01;56.15;101228.91;7396837;19;20014;-66
2022/07/14 07:47:39;;;;;;;6.70;1.40;;;;;;;17.99;56.51;101234.28;7396069;19;20015;-66
2022/07/14 07:50:10;;;;;;;10.68;1.77;;;;;;;18.04;56.10;101228.78;7395169;19;20019;-68
2022/07/14 07:52:41;;;;;;;6.97;2.40;;;;;;;18.06;56.08;101225.09;7397376;19;20078;-68
2022/07/14 07:55:11;;;;;;;5.85;1.20;;;;;;;18.05;56.03;101227.84;7394864;19;20517;-68
2022/07/14 07:57:40;;;;;;;9.20;1.85;;;;;;;18.00;55.37;101225.38;7395738;19;20082;-68
2022/07/14 08:00:10;;;;;;;8.93;2.00;;;;;;;17.98;55.25;101216.63;7394879;19;20014;-68
2022/07/14 08:02:46;;;;;;;9.38;1.38;;;;;;;17.97;55.13;101220.22;7397064;19;20364;-68
2022/07/14 08:05:15;;;;;;;5.90;1.77;;;;;;;18.04;55.39;101215.50;7396362;19;20498;-67
2022/07/14 08:07:47;;;;;;;35.55;3.60;;;;;;;18.09;54.82;101207.34;7396443;19;20027;-67
2022/07/14 08:10:16;;;;;;;28.35;2.38;;;;;;;18.12;54.20;101213.38;7394447;19;20355;-67
2022/07/14 08:12:46;;;;;;;9.65;1.92;;;;;;;18.13;53.80;101199.13;7394807;19;20039;-68
2022/07/14 08:15:16;;;;;;;4.82;1.30;;;;;;;18.17;53.58;101199.84;7394304;19;20366;-67
2022/07/14 08:17:44;;;;;;;23.08;2.05;;;;;;;18.20;53.06;101189.09;7395506;19;20019;-66
2022/07/14 08:20:14;;;;;;;9.38;1.48;;;;;;;18.25;53.00;101184.44;7395107;19;20018;-67
2022/07/14 08:22:42;;;;;;;8.80;1.67;;;;;;;18.30;52.92;101194.81;7395602;19;20584;-67
2022/07/14 08:25:14;;;;;;;8.10;1.25;;;;;;;18.36;52.71;101197.19;7394272;19;20026;-67
2022/07/14 08:27:42;;;;;;;5.22;1.25;;;;;;;18.38;52.83;101188.22;7394456;19;20082;-67
2022/07/14 08:30:11;;;;;;;8.13;1.77;;;;;;;18.42;52.26;101174.81;7393935;19;20022;-67
2022/07/14 08:32:41;;;;;;;6.43;1.73;;;;;;;18.48;51.71;101182.47;7393856;19;20018;-67
2022/07/14 08:35:12;;;;;;;6.15;1.80;;;;;;;18.52;50.75;101184.91;7394535;19;20086;-67
2022/07/14 08:37:41;;;;;;;7.15;1.40;;;;;;;18.55;50.83;101168.81;7394498;19;20018;-66
2022/07/14 08:40:15;;;;;;;8.00;1.17;;;;;;;18.57;50.96;101176.72;7392820;19;20518;-67
2022/07/14 08:42:46;;;;;;;16.98;2.33;;;;;;;18.61;51.18;101167.66;7395553;19;20391;-66
2022/07/14 08:45:16;;;;;;;29.52;2.20;;;;;;;18.68;50.87;101168.22;7395856;19;20022;-67
2022/07/14 08:47:46;;;;;;;11.95;1.55;;;;;;;18.75;50.52;101171.44;7394329;19;20018;-67
2022/07/14 08:50:17;;;;;;;7.90;1.38;;;;;;;18.79;49.97;101165.03;7393278;19;20426;-66
2022/07/14 08:52:47;;;;;;;4.03;0.98;;;;;;;18.84;49.69;101155.03;7393532;19;20520;-67
2022/07/14 08:55:20;;;;;;;5.88;1.70;;;;;;;18.88;48.51;101157.47;7394877;19;20014;-67
2022/07/14 08:57:49;;;;;;;4.80;1.20;;;;;;;18.94;48.82;101158.13;7395571;19;20085;-67
2022/07/14 09:00:19;;;;;;;6.43;1.63;;;;;;;18.95;48.79;101150.06;7392505;19;20035;-67
2022/07/14 09:02:51;;;;;;;4.20;0.95;;;;;;;19.02;48.70;101155.94;7394048;19;20026;-66
2022/07/14 09:05:20;;;;;;;5.57;1.10;;;;;;;19.07;48.72;101153.03;7392808;19;20014;-66
2022/07/14 09:07:55;;;;;;;6.88;1.23;;;;;;;19.09;47.04;101153.84;7394014;19;20007;-66
2022/07/14 09:10:29;;;;;;;9.80;2.30;;;;;;;19.12;47.56;101149.22;7392674;19;20502;-67
2022/07/14 09:13:12;;;;;;;5.40;1.63;;;;;;;19.16;47.45;101147.28;7394387;19;20018;-66
2022/07/14 09:15:47;;;;;;;4.00;0.93;;;;;;;19.23;47.03;101142.47;7394358;19;20037;-68
2022/07/14 09:18:22;;;;;;;4.63;1.13;;;;;;;19.28;46.16;101151.94;7392767;19;20023;-66
2022/07/14 09:20:52;;;;;;;4.47;1.23;;;;;;;19.35;46.61;101150.69;7392600;19;20023;-67
2022/07/14 09:23:28;;;;;;;5.47;1.23;;;;;;;19.39;45.41;101153.19;7394611;19;20037;-67
2022/07/14 09:26:17;;;;;;;8.07;1.40;;;;;;;19.47;46.10;101143.84;7392806;19;20019;-67
2022/07/14 09:28:47;;;;;;;4.28;1.05;;;;;;;19.55;46.09;101143.47;7394260;19;20019;-66
2022/07/14 09:31:26;;;;;;;4.80;2.15;;;;;;;19.62;44.46;101149.31;7392261;19;20035;-67
2022/07/14 09:33:58;;;;;;;5.35;1.20;;;;;;;19.66;45.03;101148.19;7394143;19;20014;-67
2022/07/14 09:36:29;;;;;;;3.95;1.42;;;;;;;19.68;45.31;101138.34;7394282;19;20014;-67
2022/07/14 09:39:02;;;;;;;3.30;0.90;;;;;;;19.74;43.66;101143.34;7392104;19;20010;-69
2022/07/14 09:41:36;;;;;;;3.90;1.08;;;;;;;19.82;44.64;101132.25;7394167;19;20023;-67
2022/07/14 09:44:09;;;;;;;;;;;;;;;19.86;44.17;101126.69;7392917;19;20022;-67
2022/07/14 09:46:48;;;;;;;3.70;0.98;;;;;;;19.90;43.39;101122.06;7393445;19;19931;-67
2022/07/14 09:49:17;;;;;;;3.97;1.05;;;;;;;19.97;43.65;101122.63;7392877;19;20027;-67
2022/07/14 09:51:56;;;;;;;5.68;1.50;;;;;;;20.00;43.25;101102.00;7391389;19;20027;-67
2022/07/14 09:54:47;;;;;;;2.88;0.80;;;;;;;20.08;41.51;101109.56;7393863;19;20074;-67
2022/07/14 09:57:27;;;;;;;2.60;0.85;;;;;;;20.15;40.01;101108.25;7400737;19;20417;-67
2022/07/14 09:59:59;;;;;;;2.00;0.77;;;;;;;20.21;41.15;101108.84;7399265;19;20484;-66
2022/07/14 10:02:30;;;;;;;3.80;1.17;;;;;;;20.28;40.92;101104.91;7397207;19;20568;-66
2022/07/14 10:05:01;;;;;;;4.60;1.02;;;;;;;20.40;41.46;101106.88;7400922;19;20022;-67
2022/07/14 10:07:35;;;;;;;4.95;1.20;;;;;;;20.51;42.31;101103.59;7400900;19;20040;-67
2022/07/14 10:10:07;;;;;;;3.00;0.70;;;;;;;20.57;40.61;101099.69;7397079;19;20343;-66
2022/07/14 10:12:41;;;;;;;3.42;0.98;;;;;;;20.61;41.07;101096.78;7400417;19;20018;-68
2022/07/14 10:15:12;;;;;;;7.63;1.45;;;;;;;20.64;40.57;101085.91;7400473;19;20018;-68
2022/07/14 10:17:43;;;;;;;4.32;1.63;;;;;;;20.69;40.48;101080.31;7397350;19;20371;-68
2022/07/14 10:20:15;;;;;;;4.60;0.80;;;;;;;20.76;38.43;101099.50;7396451;19;20485;-68
2022/07/14 10:22:45;;;;;;;3.92;1.17;;;;;;;20.78;37.72;101095.78;7399661;19;20014;-67
2022/07/14 10:25:14;;;;;;;6.03;0.80;;;;;;;20.81;37.83;101097.41;7395757;19;20031;-66
2022/07/14 10:27:46;;;;;;;2.50;0.80;;;;;;;20.82;37.24;101100.00;7395990;19;20028;-67
2022/07/14 10:30:15;;;;;;;2.78;1.17;;;;;;;20.83;36.65;101092.88;7397477;19;20054;-67
2022/07/14 10:32:53;;;;;;;2.55;0.70;;;;;;;20.90;36.90;101098.69;7395642;19;20024;-67
2022/07/14 10:35:41;;;;;;;4.93;1.00;;;;;;;20.92;37.49;101086.13;7397207;19;20018;-67
2022/07/14 10:38:32;;;;;;;6.47;0.75;;;;;;;20.93;37.28;101077.19;7399425;19;20049;-68
2022/07/14 10:41:09;;;;;;;3.28;0.80;;;;;;;21.01;37.33;101084.72;7397368;19;20082;-66
2022/07/14 10:44:05;;;;;;;2.33;0.85;;;;;;;21.06;35.78;101078.13;7398905;19;20027;-67
2022/07/14 10:46:42;;;;;;;4.88;1.00;;;;;;;21.16;35.52;101089.97;7398776;19;20366;-66
2022/07/14 10:49:12;;;;;;;4.65;0.82;;;;;;;21.23;35.84;101085.13;7399147;19;20014;-66
2022/07/14 10:51:48;;;;;;;4.82;1.15;;;;;;;21.27;35.45;101083.97;7396609;19;20031;-66
2022/07/14 10:54:18;;;;;;;2.13;0.70;;;;;;;21.34;35.79;101076.44;7398361;19;20018;-67
2022/07/14 10:56:47;;;;;;;3.63;0.82;;;;;;;21.40;36.26;101067.22;7396297;19;20086;-67
2022/07/14 10:59:34;;;;;;;5.30;0.90;;;;;;;21.47;35.56;101063.19;7397966;19;20027;-67
2022/07/14 11:02:31;;;;;;;6.03;1.23;;;;;;;21.49;35.35;101066.63;7399548;19;20022;-68
2022/07/14 11:05:12;;;;;;;4.35;1.20;;;;;;;21.55;34.01;101065.41;7398030;19;20040;-67
2022/07/14 11:07:50;;;;;;;2.40;0.88;;;;;;;21.61;35.06;101060.56;7398023;19;20017;-67
2022/07/14 11:11:01;;;;;;;2.78;1.15;;;;;;;21.70;33.28;101043.09;7395587;19;20481;-67
2022/07/14 11:13:30;;;;;;;2.40;0.70;;;;;;;21.82;33.96;101052.13;7395459;19;20066;-67
2022/07/14 11:16:03;;;;;;;3.00;0.90;;;;;;;21.89;32.71;101044.59;7398082;19;20039;-67
2022/07/14 11:18:37;;;;;;;3.40;0.90;;;;;;;21.95;31.05;101049.50;7394935;19;20092;-67
2022/07/14 11:21:08;;;;;;;2.50;0.75;;;;;;;22.04;32.38;101042.72;7395627;19;20461;-67
2022/07/14 11:23:39;;;;;;;2.42;1.02;;;;;;;22.08;32.28;101044.25;7398419;19;20014;-68
2022/07/14 11:26:28;;;;;;;3.33;1.17;;;;;;;22.16;32.36;101038.38;7395123;19;20011;-67
2022/07/14 11:28:59;;;;;;;3.80;0.75;;;;;;;22.22;31.46;101033.50;7395618;19;20035;-67
2022/07/14 11:31:30;;;;;;;3.60;0.80;;;;;;;22.27;30.60;101025.19;7396375;19;20070;-67
2022/07/14 11:36:42;;;;;;;1.65;0.40;;;;;;;22.39;28.82;101015.50;7396692;19;20082;-67
2022/07/14 11:39:24;;;;;;;0.98;0.40;;;;;;;22.48;25.62;101024.72;7395422;19;20022;-67
2022/07/14 11:42:06;;;;;;;3.28;0.60;;;;;;;22.63;27.08;101012.13;7394983;19;20018;-67
2022/07/14 11:44:56;;;;;;;2.35;0.57;;;;;;;22.82;25.60;101019.72;7395339;19;20022;-68
2022/07/14 11:47:30;;;;;;;1.52;0.50;;;;;;;23.02;25.32;101011.16;7397048;19;20010;-68
2022/07/14 11:50:01;;;;;;;1.63;0.65;;;;;;;23.20;25.61;101014.41;7396692;19;20029;-67
2022/07/14 11:52:33;;;;;;;2.03;0.40;;;;;;;23.32;25.34;101001.97;7395980;19;20018;-67